Time;durP1;ratioP1;P1;durP2;ratioP2;P2;SDS_P1;SDS_P2;PMS_P1;PMS_P2;Temp;Humidity;BMP_temperature;BMP_pressure;BME280_temperature;BME280_humidity;BME280_pressure;Samples;Min_cycle;Max_cycle;Signal;HPM_P1;HPM_P2
2022/09/14 00:00:45;;;;;;;;;6.25;6.25;;;;;24.01;54.25;100084.88;5001188;28;45160;-64
2022/09/14 00:03:11;;;;;;;;;9.25;7.75;;;;;24.04;53.74;100102.56;5001385;28;45484;-65
2022/09/14 00:05:36;;;;;;;;;8.75;8.00;;;;;23.99;53.71;100094.88;5001023;28;46303;-64
2022/09/14 00:08:02;;;;;;;;;6.50;5.00;;;;;23.98;53.61;100085.09;5001290;28;45242;-64
2022/09/14 00:10:27;;;;;;;;;9.50;6.75;;;;;23.98;53.83;100090.47;5001181;28;45323;-64
2022/09/14 00:12:52;;;;;;;;;7.50;6.25;;;;;23.97;54.03;100090.59;5000731;28;45374;-64
2022/09/14 00:15:18;;;;;;;;;4.75;4.75;;;;;23.97;53.97;100086.06;5000905;28;45428;-64
2022/09/14 00:17:43;;;;;;;;;9.00;7.00;;;;;23.97;53.73;100082.56;5001040;28;45227;-64
2022/09/14 00:20:09;;;;;;;;;7.00;7.00;;;;;23.97;53.77;100075.34;5000885;28;45221;-64
2022/09/14 00:22:34;;;;;;;;;9.00;7.00;;;;;23.96;53.70;100073.66;5000969;28;45251;-64
2022/09/14 00:25:00;;;;;;;;;8.50;7.25;;;;;23.94;53.63;100072.94;5000672;28;46983;-64
2022/09/14 00:27:25;;;;;;;;;8.50;8.50;;;;;23.96;53.93;100070.13;4979562;28;51145;-64
2022/09/14 00:29:50;;;;;;;;;8.25;8.00;;;;;23.94;53.83;100058.69;4997892;28;45377;-65
2022/09/14 00:32:16;;;;;;;;;10.25;9.00;;;;;23.93;53.98;100056.97;4983163;28;45606;-64
2022/09/14 00:34:41;;;;;;;;;4.50;4.50;;;;;23.92;53.72;100041.84;4982661;28;45489;-64
2022/09/14 00:37:06;;;;;;;;;8.75;6.00;;;;;23.93;54.06;100040.88;5000879;28;45357;-64
2022/09/14 00:39:32;;;;;;;;;7.25;6.00;;;;;23.91;54.17;100032.94;5000798;28;45360;-64
2022/09/14 00:41:57;;;;;;;;;6.25;6.25;;;;;23.90;54.26;100028.53;5000580;28;45480;-64
2022/09/14 00:44:22;;;;;;;;;7.00;4.25;;;;;23.90;53.82;100025.84;5000417;28;46094;-64
2022/09/14 00:46:52;;;;;;;;;6.00;6.00;;;;;23.90;53.89;100017.78;5000492;28;45306;-64
2022/09/14 00:49:25;;;;;;;;;9.50;7.00;;;;;23.87;53.92;100018.03;5000505;28;45346;-64
2022/09/14 00:52:07;;;;;;;;;9.00;6.50;;;;;23.86;54.07;100010.94;5000368;28;45276;-64
2022/09/14 00:54:35;;;;;;;;;6.75;6.75;;;;;23.87;54.08;99996.56;5000568;28;45375;-64
2022/09/14 00:57:02;;;;;;;;;12.50;9.25;;;;;23.88;53.99;99989.38;5000339;28;45319;-64
2022/09/14 00:59:33;;;;;;;;;9.00;7.50;;;;;23.88;54.10;99990.22;5000384;28;45394;-64
2022/09/14 01:01:58;;;;;;;;;9.25;8.25;;;;;23.87;54.00;99983.16;4980980;28;45436;-64
2022/09/14 01:04:23;;;;;;;;;9.00;8.25;;;;;23.87;54.07;99975.09;5000042;28;46101;-64
2022/09/14 01:07:02;;;;;;;;;6.50;6.50;;;;;23.88;53.96;99976.81;5000296;28;45564;-64
2022/09/14 01:10:00;;;;;;;;;8.50;8.50;;;;;23.88;54.21;99967.94;4979400;28;45348;-64
2022/09/14 01:12:43;;;;;;;;;6.50;6.25;;;;;23.88;54.03;99970.59;4995345;28;45373;-64
2022/09/14 01:15:17;;;;;;;;;9.50;8.25;;;;;23.84;53.69;99957.44;4996378;28;46255;-63
2022/09/14 01:18:18;;;;;;;;;6.25;6.25;;;;;23.82;54.21;99953.19;5000005;28;45260;-64
2022/09/14 01:20:57;;;;;;;;;8.25;5.25;;;;;23.81;54.10;99946.09;4966821;28;45320;-64
2022/09/14 01:23:41;;;;;;;;;7.50;5.25;;;;;23.81;54.17;99943.41;4981672;28;51612;-64
2022/09/14 01:26:10;;;;;;;;;8.75;6.75;;;;;23.79;54.06;99940.03;4999192;28;46387;-64
2022/09/14 01:28:47;;;;;;;;;6.00;5.25;;;;;23.78;54.22;99927.59;4999811;28;45326;-65
2022/09/14 01:31:23;;;;;;;;;8.50;6.50;;;;;23.78;54.20;99927.59;4980433;28;45407;-64
2022/09/14 01:34:02;;;;;;;;;7.00;7.00;;;;;23.78;54.22;99933.78;4981906;28;45395;-64
2022/09/14 01:36:29;;;;;;;;;7.50;5.50;;;;;23.76;54.25;99945.63;4991808;28;45627;-63
2022/09/14 01:38:55;;;;;;;;;7.50;7.50;;;;;23.77;53.96;99944.66;4999946;28;45337;-65
2022/09/14 01:41:25;;;;;;;;;5.00;4.75;;;;;23.76;54.23;99943.81;4999890;28;45286;-65
2022/09/14 01:44:15;;;;;;;;;9.00;8.00;;;;;23.75;54.22;99950.16;4999586;28;45511;-64
2022/09/14 01:46:44;;;;;;;;;10.00;6.00;;;;;23.69;54.27;99948.81;4998887;28;45338;-64
2022/09/14 01:49:16;;;;;;;;;6.75;6.00;;;;;23.70;54.21;99947.84;4980676;28;45375;-63
2022/09/14 01:51:49;;;;;;;;;5.50;5.50;;;;;23.71;54.27;99954.06;4999844;28;45283;-64
2022/09/14 01:54:24;;;;;;;;;8.25;8.25;;;;;23.65;54.22;99950.06;4999463;28;45235;-65
2022/09/14 01:57:00;;;;;;;;;9.25;7.50;;;;;23.66;54.20;99954.44;4998682;28;46093;-63
2022/09/14 01:59:30;;;;;;;;;9.00;7.00;;;;;23.67;54.31;99952.59;4999313;28;45462;-64
2022/09/14 02:02:08;;;;;;;;;8.00;5.75;;;;;23.58;54.23;99937.28;4999539;28;45223;-64
2022/09/14 02:04:43;;;;;;;;;6.50;6.50;;;;;23.61;54.71;99955.78;4999638;28;45215;-65
2022/09/14 02:07:09;;;;;;;;;8.50;7.00;;;;;23.60;54.22;99956.78;4999287;28;45280;-64
2022/09/14 02:09:35;;;;;;;;;6.00;6.00;;;;;23.60;54.39;99952.25;4978512;28;45293;-64
2022/09/14 02:12:01;;;;;;;;;8.75;7.00;;;;;23.61;54.13;99953.97;4996294;28;45439;-64
2022/09/14 02:14:27;;;;;;;;;8.00;7.50;;;;;23.60;54.34;99946.06;4998809;28;45663;-64
2022/09/14 02:16:52;;;;;;;;;8.00;7.75;;;;;23.59;54.30;99945.19;4999448;28;45331;-65
2022/09/14 02:19:18;;;;;;;;;7.50;7.50;;;;;23.58;54.36;99940.78;4999224;28;45316;-65
2022/09/14 02:21:43;;;;;;;;;6.50;5.75;;;;;23.56;54.49;99934.72;4981761;28;45386;-64
2022/09/14 02:24:10;;;;;;;;;5.00;5.00;;;;;23.58;54.27;99939.97;4999452;28;45336;-65
2022/09/14 02:26:36;;;;;;;;;7.00;7.00;;;;;23.58;54.42;99954.19;4999175;28;46079;-64
2022/09/14 02:29:02;;;;;;;;;6.50;6.25;;;;;23.57;54.43;99971.28;4999058;28;45297;-64
2022/09/14 02:31:36;;;;;;;;;7.75;7.50;;;;;23.56;54.13;99977.63;4999088;28;45211;-64
2022/09/14 02:34:12;;;;;;;;;6.50;6.50;;;;;23.56;54.16;99971.41;4998940;28;45330;-64
2022/09/14 02:36:47;;;;;;;;;6.75;6.75;;;;;23.53;54.72;99961.78;4991430;28;46651;-64
2022/09/14 02:39:30;;;;;;;;;7.00;7.00;;;;;23.51;54.42;99964.59;5002417;28;45267;-64
2022/09/14 02:42:09;;;;;;;;;8.75;7.25;;;;;23.43;54.17;99945.56;5002584;28;45259;-64
2022/09/14 02:44:50;;;;;;;;;9.00;7.00;;;;;23.48;54.31;99948.75;5002243;28;45321;-64
2022/09/14 02:47:24;;;;;;;;;7.00;6.75;;;;;23.48;54.62;99950.56;5001423;28;45565;-64
2022/09/14 02:50:02;;;;;;;;;9.00;7.25;;;;;23.47;54.19;99952.41;5002186;28;45330;-64
2022/09/14 02:52:52;;;;;;;;;8.00;8.00;;;;;23.46;54.42;99950.72;5002259;28;45270;-64
2022/09/14 02:55:20;;;;;;;;;9.25;6.75;;;;;23.45;54.47;99943.63;4981357;28;45426;-64
2022/09/14 02:58:12;;;;;;;;;10.50;7.00;;;;;23.44;54.82;99955.31;4989166;28;45343;-64
2022/09/14 03:00:41;;;;;;;;;6.25;6.00;;;;;23.41;54.47;99954.72;5002013;28;45291;-64
2022/09/14 03:03:09;;;;;;;;;6.25;6.25;;;;;23.40;54.70;99945.00;5001252;28;45235;-64
2022/09/14 03:05:35;;;;;;;;;10.50;9.00;;;;;23.38;54.84;99945.09;5001361;28;45228;-63
2022/09/14 03:08:01;;;;;;;;;7.00;6.25;;;;;23.37;54.72;99952.28;5001188;28;46385;-63
2022/09/14 03:10:27;;;;;;;;;6.25;6.25;;;;;23.35;54.70;99948.88;5001911;28;45335;-63
2022/09/14 03:12:52;;;;;;;;;5.75;5.75;;;;;23.35;54.64;99954.25;4980915;28;45340;-63
2022/09/14 03:15:18;;;;;;;;;5.00;5.00;;;;;23.33;54.68;99948.16;4999701;28;45495;-64
2022/09/14 03:17:47;;;;;;;;;8.00;8.00;;;;;23.33;54.67;99948.16;4980508;28;47693;-64
2022/09/14 03:20:15;;;;;;;;;7.75;6.50;;;;;23.33;54.74;99944.63;4999801;28;45398;-64
2022/09/14 03:22:40;;;;;;;;;8.50;8.50;;;;;23.32;54.85;99937.53;5001889;28;45255;-64
2022/09/14 03:25:06;;;;;;;;;7.50;6.50;;;;;23.31;54.68;99942.06;5001653;28;45430;-64
2022/09/14 03:27:31;;;;;;;;;6.50;6.50;;;;;23.31;54.87;99949.28;5001746;28;45452;-64
2022/09/14 03:29:56;;;;;;;;;8.75;6.50;;;;;23.32;54.64;99945.59;4984089;28;45275;-64
2022/09/14 03:32:22;;;;;;;;;7.75;7.00;;;;;23.27;54.74;99931.72;5001805;28;45251;-64
2022/09/14 03:34:47;;;;;;;;;8.00;6.50;;;;;23.30;54.80;99943.03;5000873;28;52025;-63
2022/09/14 03:37:12;;;;;;;;;6.50;6.50;;;;;23.29;54.72;99944.00;5001646;28;45946;-64
2022/09/14 03:39:38;;;;;;;;;6.25;5.00;;;;;23.30;54.60;99942.19;5001657;28;45283;-64
2022/09/14 03:42:03;;;;;;;;;6.50;6.00;;;;;23.28;54.82;99936.97;5001714;28;45904;-64
2022/09/14 03:44:28;;;;;;;;;8.25;7.00;;;;;23.27;54.88;99931.72;5001382;28;45319;-64
2022/09/14 03:46:54;;;;;;;;;7.50;7.25;;;;;23.26;54.91;99933.56;5001628;28;45708;-64
2022/09/14 03:49:19;;;;;;;;;6.50;5.50;;;;;23.27;54.84;99940.63;5000384;28;45285;-64
2022/09/14 03:51:44;;;;;;;;;10.25;7.50;;;;;23.27;54.85;99939.75;4980582;28;45269;-64
2022/09/14 03:54:10;;;;;;;;;7.00;6.00;;;;;23.26;54.82;99944.28;4998157;28;45902;-64
2022/09/14 03:56:35;;;;;;;;;7.50;7.50;;;;;23.26;54.64;99952.31;5001477;28;45406;-64
2022/09/14 03:59:00;;;;;;;;;17.50;17.00;;;;;23.24;54.70;99940.84;5001189;28;45229;-64
2022/09/14 04:01:26;;;;;;;;;9.75;8.00;;;;;23.28;54.76;99949.50;4984045;28;45241;-64
2022/09/14 04:03:51;;;;;;;;;9.50;8.25;;;;;23.26;54.67;99949.63;5000549;28;45400;-64
2022/09/14 04:06:17;;;;;;;;;9.50;8.00;;;;;23.26;54.97;99932.69;5001336;28;45290;-64
2022/09/14 04:08:45;;;;;;;;;10.50;8.75;;;;;23.27;54.79;99942.44;5001436;28;45291;-64
2022/09/14 04:11:16;;;;;;;;;12.25;10.25;;;;;23.26;55.06;99943.41;5001482;28;45252;-64
2022/09/14 04:13:42;;;;;;;;;6.75;6.75;;;;;23.26;54.89;99936.22;5000104;28;45464;-64
2022/09/14 04:16:08;;;;;;;;;7.50;6.25;;;;;23.26;55.00;99936.22;5000484;28;45446;-64
2022/09/14 04:18:33;;;;;;;;;6.00;5.75;;;;;23.27;54.88;99927.22;5000771;28;45328;-64
2022/09/14 04:21:02;;;;;;;;;7.00;6.75;;;;;23.26;54.74;99912.13;5001414;28;45544;-64
2022/09/14 04:23:27;;;;;;;;;9.25;6.00;;;;;23.25;55.01;99913.06;5000888;28;45414;-64
2022/09/14 04:25:53;;;;;;;;;13.75;9.00;;;;;23.26;54.98;99912.13;5000833;28;45417;-64
2022/09/14 04:28:19;;;;;;;;;6.50;6.50;;;;;23.23;55.01;99904.31;5000652;28;45248;-64
2022/09/14 04:30:54;;;;;;;;;7.50;6.00;;;;;23.23;54.77;99906.97;5001103;28;45327;-64
2022/09/14 04:33:19;;;;;;;;;6.00;6.00;;;;;23.20;54.60;99913.44;4979221;28;45301;-64
2022/09/14 04:35:44;;;;;;;;;6.00;5.75;;;;;23.20;54.77;99910.75;4999475;28;48397;-64
2022/09/14 04:38:09;;;;;;;;;9.00;7.00;;;;;23.18;54.90;99914.53;5001189;28;45380;-64
2022/09/14 04:40:40;;;;;;;;;6.25;6.25;;;;;23.18;54.87;99918.09;4979807;28;47814;-64
2022/09/14 04:43:05;;;;;;;;;11.00;7.50;;;;;23.17;55.06;99919.06;4978930;28;45759;-64
2022/09/14 04:45:31;;;;;;;;;5.75;5.50;;;;;23.13;55.41;99914.91;4992651;28;45997;-64
2022/09/14 04:47:56;;;;;;;;;6.50;6.50;;;;;23.11;55.30;99905.28;4979388;28;45286;-64
2022/09/14 04:50:21;;;;;;;;;6.00;6.00;;;;;23.10;54.79;99909.78;4992325;28;49083;-64
2022/09/14 04:52:46;;;;;;;;;5.00;5.00;;;;;23.08;55.15;99903.69;5000311;28;45310;-63
2022/09/14 04:55:12;;;;;;;;;5.75;5.75;;;;;23.08;54.78;99900.16;4979568;28;46358;-64
2022/09/14 04:57:37;;;;;;;;;7.00;7.00;;;;;23.08;55.16;99902.84;4998447;28;45354;-64
2022/09/14 05:00:03;;;;;;;;;8.25;7.00;;;;;23.07;55.02;99895.75;4999475;28;45380;-64
2022/09/14 05:02:30;;;;;;;;;5.00;5.00;;;;;23.07;54.95;99898.44;5000024;28;45517;-64
2022/09/14 05:04:57;;;;;;;;;7.25;7.25;;;;;23.08;54.85;99897.47;5000095;28;47176;-64
2022/09/14 05:07:23;;;;;;;;;9.75;7.00;;;;;23.05;54.98;99902.09;5000129;28;45281;-64
2022/09/14 05:09:48;;;;;;;;;7.00;6.50;;;;;23.07;54.93;99903.81;5000527;28;45205;-64
2022/09/14 05:12:14;;;;;;;;;7.50;6.00;;;;;23.05;54.96;99904.78;4999890;28;45449;-64
2022/09/14 05:14:39;;;;;;;;;7.00;7.00;;;;;23.05;55.02;99899.41;4999892;28;55742;-64
2022/09/14 05:17:04;;;;;;;;;9.75;7.75;;;;;23.04;55.01;99897.72;4999751;28;51713;-64
2022/09/14 05:19:30;;;;;;;;;9.25;8.00;;;;;23.05;55.45;99909.28;5000077;28;45259;-64
2022/09/14 05:21:55;;;;;;;;;6.00;5.50;;;;;23.03;54.99;99909.41;4999703;28;45228;-64
2022/09/14 05:24:20;;;;;;;;;4.75;3.75;;;;;23.02;54.90;99905.03;5000126;28;52181;-64
2022/09/14 05:26:46;;;;;;;;;9.00;7.00;;;;;23.01;55.29;99908.69;4999981;28;45370;-65
2022/09/14 05:29:14;;;;;;;;;5.50;5.00;;;;;23.00;55.10;99904.28;5000057;28;45330;-64
2022/09/14 05:31:40;;;;;;;;;9.75;8.00;;;;;22.99;55.20;99897.25;4999735;28;45388;-64
2022/09/14 05:34:05;;;;;;;;;6.00;6.00;;;;;22.98;55.19;99895.53;4999308;28;46368;-64
2022/09/14 05:36:31;;;;;;;;;6.25;6.25;;;;;22.94;55.23;99891.38;4999631;28;45440;-64
2022/09/14 05:38:56;;;;;;;;;6.50;6.25;;;;;22.95;55.31;99893.09;5000092;28;45278;-64
2022/09/14 05:41:22;;;;;;;;;9.25;8.25;;;;;22.93;55.29;99887.03;4999738;28;45188;-64
2022/09/14 05:43:48;;;;;;;;;11.00;8.00;;;;;22.93;55.13;99897.75;4999723;28;45239;-64
2022/09/14 05:46:15;;;;;;;;;11.00;8.75;;;;;22.92;55.43;99901.38;4999732;28;45235;-64
2022/09/14 05:48:42;;;;;;;;;7.75;7.00;;;;;22.91;55.36;99910.38;4999695;28;45416;-64
2022/09/14 05:51:14;;;;;;;;;8.25;6.75;;;;;22.86;55.55;99908.06;4999727;28;45418;-64
2022/09/14 05:53:40;;;;;;;;;8.75;6.75;;;;;22.84;55.57;99907.34;4999484;28;46492;-64
2022/09/14 05:56:12;;;;;;;;;5.75;4.50;;;;;22.81;55.53;99904.91;4998380;28;45560;-64
2022/09/14 05:58:38;;;;;;;;;7.75;7.75;;;;;22.79;55.59;99906.88;4999693;28;45232;-64
2022/09/14 06:01:10;;;;;;;;;9.75;7.25;;;;;22.74;55.74;99901.00;4999377;28;45513;-64
2022/09/14 06:03:36;;;;;;;;;8.00;6.00;;;;;22.76;55.73;99908.94;4998969;28;45492;-64
2022/09/14 06:06:04;;;;;;;;;7.00;6.50;;;;;22.73;55.74;99907.34;4999198;28;45174;-64
2022/09/14 06:08:30;;;;;;;;;5.75;5.75;;;;;22.69;55.78;99914.75;4999232;28;45255;-64
2022/09/14 06:10:55;;;;;;;;;8.25;7.00;;;;;22.68;55.78;99902.34;4999400;28;45383;-64
2022/09/14 06:13:22;;;;;;;;;7.75;6.25;;;;;22.69;55.87;99897.81;5002606;28;46302;-64
2022/09/14 06:15:47;;;;;;;;;8.50;7.00;;;;;22.67;55.64;99889.94;5002787;28;45372;-64
2022/09/14 06:18:13;;;;;;;;;10.75;7.25;;;;;22.68;55.92;99893.47;5002527;28;45533;-65
2022/09/14 06:20:39;;;;;;;;;7.75;7.00;;;;;22.68;55.78;99885.44;5002926;28;45254;-65
2022/09/14 06:23:04;;;;;;;;;10.75;9.00;;;;;22.70;55.91;99886.16;5002581;28;45307;-65
2022/09/14 06:25:30;;;;;;;;;9.25;7.75;;;;;22.68;55.54;99886.28;5002760;28;45329;-65
2022/09/14 06:27:55;;;;;;;;;8.75;6.75;;;;;22.70;55.76;99900.41;5002642;28;45467;-65
2022/09/14 06:30:21;;;;;;;;;6.00;6.00;;;;;22.73;55.48;99905.50;4981558;28;45568;-64
2022/09/14 06:32:46;;;;;;;;;9.00;8.00;;;;;22.72;55.97;99911.84;4984269;28;48086;-65
2022/09/14 06:35:11;;;;;;;;;6.75;5.75;;;;;22.76;55.85;99916.97;5002185;28;45927;-65
2022/09/14 06:37:37;;;;;;;;;10.50;7.50;;;;;22.73;55.95;99912.69;5002308;28;45417;-65
2022/09/14 06:40:02;;;;;;;;;9.75;8.00;;;;;22.73;55.81;99915.38;5002314;28;45294;-65
2022/09/14 06:42:29;;;;;;;;;9.00;6.25;;;;;22.73;55.75;99905.50;5001770;28;46118;-65
2022/09/14 06:44:55;;;;;;;;;9.00;8.00;;;;;22.75;55.93;99917.94;5002075;28;45274;-65
2022/09/14 06:47:20;;;;;;;;;9.00;8.00;;;;;22.74;55.89;99919.75;5001941;28;45504;-65
2022/09/14 06:49:46;;;;;;;;;6.00;6.00;;;;;22.70;55.95;99902.22;5001855;28;45428;-65
2022/09/14 06:52:11;;;;;;;;;6.00;6.00;;;;;22.73;56.09;99913.53;5001598;28;46098;-65
2022/09/14 06:54:36;;;;;;;;;10.75;8.00;;;;;22.72;56.08;99916.34;5001751;28;46482;-65
2022/09/14 06:57:02;;;;;;;;;7.50;6.00;;;;;22.73;55.82;99916.22;5001948;28;45455;-65
2022/09/14 06:59:27;;;;;;;;;9.75;9.75;;;;;22.75;56.00;99923.28;5001641;28;45279;-65
2022/09/14 07:01:53;;;;;;;;;9.00;8.25;;;;;22.72;56.57;99925.22;5001728;28;45262;-65
2022/09/14 07:04:18;;;;;;;;;16.25;14.00;;;;;22.73;55.81;99926.09;5001327;28;45404;-65
2022/09/14 07:06:46;;;;;;;;;10.50;8.75;;;;;22.75;56.14;99923.28;4967816;28;45326;-65
2022/09/14 07:09:13;;;;;;;;;8.25;7.75;;;;;22.74;56.36;99925.09;5001640;28;45160;-65
2022/09/14 07:11:38;;;;;;;;;9.50;7.50;;;;;22.75;56.26;99915.25;5001445;28;45510;-65
2022/09/14 07:14:04;;;;;;;;;7.75;7.00;;;;;22.78;56.08;99917.69;5001084;28;45326;-65
2022/09/14 07:16:32;;;;;;;;;11.50;9.00;;;;;22.78;56.27;99923.03;5001829;28;45227;-66
2022/09/14 07:19:03;;;;;;;;;12.00;9.50;;;;;22.77;56.43;99918.69;5001209;28;45326;-65
2022/09/14 07:21:30;;;;;;;;;11.00;8.00;;;;;22.78;56.49;99917.69;5006669;28;45360;-65
2022/09/14 07:23:56;;;;;;;;;8.00;7.50;;;;;22.80;56.68;99918.41;5000267;28;45220;-65
2022/09/14 07:26:24;;;;;;;;;4.25;4.25;;;;;22.79;56.74;99914.91;5001272;28;45275;-65
2022/09/14 07:28:53;;;;;;;;;10.50;9.25;;;;;22.82;56.43;99922.69;5001161;28;45475;-65
2022/09/14 07:31:23;;;;;;;;;8.75;7.00;;;;;22.84;56.63;99927.91;5000956;28;46332;-65
2022/09/14 07:33:52;;;;;;;;;9.00;7.50;;;;;22.85;56.63;99922.44;5000889;28;45596;-65
2022/09/14 07:36:17;;;;;;;;;9.75;9.00;;;;;22.87;56.67;99927.69;4992204;28;45428;-65
2022/09/14 07:38:42;;;;;;;;;11.00;7.25;;;;;22.87;56.52;99922.31;5001221;28;45339;-65
2022/09/14 07:41:08;;;;;;;;;14.25;10.00;;;;;22.87;56.84;99922.31;4983249;28;47036;-65
2022/09/14 07:43:33;;;;;;;;;10.75;10.75;;;;;22.90;56.53;99932.78;5001067;28;45443;-65
2022/09/14 07:46:03;;;;;;;;;9.00;7.00;;;;;22.94;56.63;99939.59;5001265;28;45406;-65
2022/09/14 07:48:30;;;;;;;;;10.00;7.50;;;;;22.97;56.58;99944.72;4999893;28;45272;-65
2022/09/14 07:51:05;;;;;;;;;7.50;7.50;;;;;22.99;56.58;99963.34;5000849;28;45423;-65
2022/09/14 07:53:31;;;;;;;;;12.50;9.00;;;;;23.01;56.62;99970.28;5000789;28;45357;-65
2022/09/14 07:55:59;;;;;;;;;10.25;9.25;;;;;22.99;57.09;99984.78;5000949;28;45273;-64
2022/09/14 07:58:25;;;;;;;;;6.50;6.25;;;;;22.91;57.11;99982.72;4979866;28;45376;-65
2022/09/14 08:00:50;;;;;;;;;9.75;8.50;;;;;22.98;57.25;99975.91;4999196;28;46235;-65
2022/09/14 08:03:15;;;;;;;;;8.25;7.75;;;;;22.98;57.12;99962.50;5000650;28;45318;-65
2022/09/14 08:05:41;;;;;;;;;12.50;10.00;;;;;23.08;56.80;99976.03;5000873;28;45347;-65
2022/09/14 08:08:06;;;;;;;;;12.00;12.00;;;;;23.04;57.18;99980.78;5000938;28;45456;-65
2022/09/14 08:10:34;;;;;;;;;13.25;11.25;;;;;23.04;57.29;99978.09;5000473;28;45325;-65
2022/09/14 08:12:59;;;;;;;;;10.50;9.00;;;;;23.08;56.92;99997.47;5000574;28;45311;-65
2022/09/14 08:15:24;;;;;;;;;11.00;10.75;;;;;23.07;57.02;99997.56;5000723;28;45342;-64
2022/09/14 08:17:50;;;;;;;;;13.00;10.00;;;;;23.03;57.06;100007.66;4979433;28;45362;-64
2022/09/14 08:20:16;;;;;;;;;11.50;9.50;;;;;23.08;57.09;100010.88;4978883;28;57354;-64
2022/09/14 08:22:43;;;;;;;;;12.50;10.00;;;;;23.13;57.02;100005.13;4966435;28;45469;-64
2022/09/14 08:25:09;;;;;;;;;11.00;11.00;;;;;23.14;57.11;100007.69;5000389;28;45224;-64
2022/09/14 08:27:34;;;;;;;;;9.25;9.25;;;;;23.14;57.88;100007.69;5012015;28;45345;-64
2022/09/14 08:30:00;;;;;;;;;8.50;8.50;;;;;23.17;57.29;100004.81;5001719;28;45219;-64
2022/09/14 08:32:25;;;;;;;;;9.25;8.00;;;;;23.21;57.20;99997.38;5000354;28;45219;-64
2022/09/14 08:34:50;;;;;;;;;9.50;9.00;;;;;23.22;57.18;100004.47;4999763;28;45402;-64
2022/09/14 08:37:16;;;;;;;;;10.75;10.00;;;;;23.26;57.36;100008.59;5000482;28;45495;-64
2022/09/14 08:39:41;;;;;;;;;9.50;9.50;;;;;23.31;57.43;100001.03;4978715;28;46564;-65
2022/09/14 08:42:14;;;;;;;;;10.25;10.25;;;;;23.40;57.20;100010.16;4992018;28;45255;-65
2022/09/14 08:44:43;;;;;;;;;9.00;8.25;;;;;23.47;56.88;100010.53;5000329;28;45377;-64
2022/09/14 08:47:18;;;;;;;;;11.75;10.00;;;;;23.53;57.07;100021.63;5000215;28;45318;-65
2022/09/14 08:49:46;;;;;;;;;8.50;8.50;;;;;23.60;57.28;100013.94;4982164;28;47468;-65
2022/09/14 08:52:21;;;;;;;;;10.25;9.25;;;;;23.67;56.95;100019.66;4999850;28;45231;-65
2022/09/14 08:54:50;;;;;;;;;8.25;8.25;;;;;23.74;56.75;100031.59;5000233;28;45447;-65
2022/09/14 08:57:18;;;;;;;;;12.00;8.25;;;;;23.76;56.92;100024.28;4999740;28;45252;-66
2022/09/14 08:59:58;;;;;;;;;8.50;8.50;;;;;23.75;57.14;100024.38;4999821;28;45528;-64
2022/09/14 09:03:01;;;;;;;;;10.00;8.25;;;;;23.85;56.72;100026.19;4978649;28;45202;-64
2022/09/14 09:05:34;;;;;;;;;7.75;5.00;;;;;23.95;56.69;100017.44;4982204;28;45295;-65
2022/09/14 09:08:11;;;;;;;;;8.50;7.75;;;;;24.01;56.96;100023.16;4999719;28;45332;-66
2022/09/14 09:10:39;;;;;;;;;9.50;6.75;;;;;23.96;56.62;100011.97;4999640;28;47076;-66
2022/09/14 09:13:08;;;;;;;;;10.25;8.25;;;;;24.11;56.35;100033.13;4999663;28;45243;-65
2022/09/14 09:15:40;;;;;;;;;9.75;8.25;;;;;24.17;56.42;100029.94;4999767;28;45361;-66
2022/09/14 09:18:12;;;;;;;;;10.00;7.00;;;;;24.17;56.55;100038.81;4999523;28;45534;-65
2022/09/14 09:20:45;;;;;;;;;12.00;7.75;;;;;24.20;56.29;100034.19;4999490;28;46714;-66
2022/09/14 09:23:18;;;;;;;;;8.75;7.50;;;;;24.22;56.04;100037.63;4995273;28;45442;-66
2022/09/14 09:26:02;;;;;;;;;11.00;8.25;;;;;24.23;56.23;100033.97;4999832;28;45349;-65
2022/09/14 09:28:28;;;;;;;;;8.00;8.00;;;;;24.31;55.81;100028.78;4999300;28;45381;-64
2022/09/14 09:30:57;;;;;;;;;9.00;8.00;;;;;24.38;55.98;100024.63;4999688;28;45407;-64
2022/09/14 09:33:25;;;;;;;;;5.00;4.25;;;;;24.41;55.88;100021.66;4998973;28;45381;-64
2022/09/14 09:35:52;;;;;;;;;7.50;7.25;;;;;24.49;55.51;100027.25;4999577;28;45331;-64
2022/09/14 09:38:23;;;;;;;;;7.75;7.75;;;;;24.50;55.78;100026.28;4999300;28;45262;-64
2022/09/14 09:41:00;;;;;;;;;7.25;5.75;;;;;24.57;55.58;100036.50;4998645;28;45380;-65
2022/09/14 09:43:26;;;;;;;;;7.00;7.00;;;;;24.64;55.19;100043.94;4999286;28;45246;-65
2022/09/14 09:45:56;;;;;;;;;9.75;8.50;;;;;24.66;55.32;100031.22;4998815;28;45598;-64
2022/09/14 09:48:39;;;;;;;;;9.00;8.00;;;;;24.73;55.39;100033.38;4978178;28;45494;-65
2022/09/14 09:51:22;;;;;;;;;6.50;5.75;;;;;24.81;55.26;100028.22;4978169;28;47235;-66
2022/09/14 09:53:56;;;;;;;;;8.50;6.25;;;;;24.84;54.98;100022.56;4992611;28;45616;-66
2022/09/14 09:56:27;;;;;;;;;5.00;5.00;;;;;24.98;54.80;100024.94;4999585;28;45414;-65
2022/09/14 09:58:53;;;;;;;;;6.00;6.00;;;;;24.99;54.84;100015.91;4998895;28;45412;-65
2022/09/14 10:01:29;;;;;;;;;5.00;5.00;;;;;25.08;54.97;100019.63;4999163;28;45283;-65
2022/09/14 10:04:05;;;;;;;;;6.25;4.25;;;;;25.10;54.49;100020.31;4998952;28;45262;-65
2022/09/14 10:06:39;;;;;;;;;6.75;6.25;;;;;25.18;54.29;99997.31;4998131;28;45326;-65
2022/09/14 10:09:22;;;;;;;;;7.00;7.00;;;;;25.29;54.49;100006.13;4999050;28;45335;-66
2022/09/14 10:11:59;;;;;;;;;4.00;4.00;;;;;25.39;53.90;99998.13;4998877;28;46330;-65
2022/09/14 10:14:24;;;;;;;;;9.75;6.25;;;;;25.44;53.70;100003.94;4999007;28;45359;-65
2022/09/14 10:16:50;;;;;;;;;6.00;6.00;;;;;25.50;53.93;100007.06;4999150;28;45239;-66
2022/09/14 10:19:24;;;;;;;;;6.25;6.00;;;;;25.56;53.08;100002.03;4998945;28;45681;-66
2022/09/14 10:22:25;;;;;;;;;6.00;5.50;;;;;25.61;53.71;99999.75;4998643;28;47211;-65
2022/09/14 10:24:53;;;;;;;;;4.25;3.00;;;;;25.70;53.46;99997.22;4998769;28;45365;-65
2022/09/14 10:27:38;;;;;;;;;5.00;5.00;;;;;25.75;52.96;99992.31;4998423;28;45279;-66
2022/09/14 10:30:09;;;;;;;;;7.50;5.50;;;;;25.82;53.23;99996.13;4998585;28;45519;-66
2022/09/14 10:32:36;;;;;;;;;4.50;4.50;;;;;25.90;52.73;99982.84;4977505;28;45374;-66
2022/09/14 10:35:08;;;;;;;;;5.00;4.00;;;;;26.03;52.58;99979.88;4998028;28;45328;-66
2022/09/14 10:37:46;;;;;;;;;5.50;5.00;;;;;26.10;52.36;99983.72;4988480;28;45453;-65
2022/09/14 10:40:18;;;;;;;;;4.75;4.75;;;;;26.20;52.35;99975.66;4998997;28;45377;-66
2022/09/14 10:42:52;;;;;;;;;5.00;4.00;;;;;26.28;52.43;99967.72;4998295;28;46065;-66
2022/09/14 10:45:26;;;;;;;;;5.50;5.25;;;;;26.38;51.84;99958.78;4998810;28;45406;-66
2022/09/14 10:48:18;;;;;;;;;5.00;3.75;;;;;26.45;52.12;99962.59;4998480;28;45440;-66
2022/09/14 10:50:52;;;;;;;;;6.50;5.00;;;;;26.54;51.82;99961.75;4993675;28;45167;-67
2022/09/14 10:54:08;;;;;;;;;4.50;3.50;;;;;26.65;52.02;99951.78;4977621;28;47483;-66
2022/09/14 10:56:54;;;;;;;;;6.00;5.00;;;;;26.76;52.25;99948.97;4938300;28;45506;-66
2022/09/14 10:59:22;;;;;;;;;6.00;5.00;;;;;26.93;51.88;99952.75;4985776;28;45265;-66
2022/09/14 11:02:19;;;;;;;;;4.50;4.00;;;;;27.17;52.15;99952.22;5002106;28;45414;-66
2022/09/14 11:05:18;;;;;;;;;6.00;4.00;;;;;27.41;52.07;99950.88;5002045;28;46618;-65
2022/09/14 11:08:18;;;;;;;;;4.25;3.25;;;;;27.68;52.03;99954.53;5002369;28;45247;-67
2022/09/14 11:11:08;;;;;;;;;8.25;6.00;;;;;28.05;51.33;99948.19;4968864;28;45348;-67
2022/09/14 11:14:03;;;;;;;;;4.75;4.75;;;;;28.40;51.30;99940.19;5002120;28;45266;-67
2022/09/14 11:16:46;;;;;;;;;6.00;5.00;;;;;28.64;51.33;99950.31;4984501;28;46354;-67
2022/09/14 11:19:21;;;;;;;;;4.50;4.50;;;;;28.79;51.10;99943.38;5002108;28;45176;-66
2022/09/14 11:22:19;;;;;;;;;6.00;6.00;;;;;29.03;50.54;99941.78;5002197;28;45331;-66
2022/09/14 11:25:11;;;;;;;;;3.50;3.50;;;;;29.17;50.24;99951.19;4965067;28;45208;-66
2022/09/14 11:27:53;;;;;;;;;6.00;6.00;;;;;29.34;49.46;99949.41;4977971;28;46285;-66
2022/09/14 11:30:29;;;;;;;;;9.50;9.25;;;;;29.47;49.36;99933.56;4989605;28;45358;-66
2022/09/14 11:33:03;;;;;;;;;5.50;5.50;;;;;29.64;49.25;99944.44;4982705;28;45385;-66
2022/09/14 11:35:34;;;;;;;;;4.75;4.75;;;;;29.79;48.65;99937.34;5001663;28;45355;-64
2022/09/14 11:38:17;;;;;;;;;7.00;5.75;;;;;29.91;48.89;99937.06;5001768;28;45614;-66
2022/09/14 11:40:51;;;;;;;;;5.00;5.00;;;;;30.05;48.69;99940.97;5001556;28;45264;-64
2022/09/14 11:43:27;;;;;;;;;4.00;3.00;;;;;30.09;47.76;99943.19;4980717;28;45420;-66